sensor_id;sensor_type;location;lat;lon;timestamp;pressure;altitude;pressure_sealevel;temperature;humidity
596;BME280;19946;49.306;11.350;2024-01-27T00:00:16;97811.19;;;1.59;100.00
596;BME280;19946;49.306;11.350;2024-01-27T00:03:25;97787.59;;;1.51;100.00
596;BME280;19946;49.306;11.350;2024-01-27T00:06:27;97769.69;;;1.20;100.00
596;BME280;19946;49.306;11.350;2024-01-27T00:09:32;97819.81;;;1.55;100.00
596;BME280;19946;49.306;11.350;2024-01-27T00:12:39;97815.97;;;1.40;100.00
596;BME280;19946;49.306;11.350;2024-01-27T00:15:42;97818.44;;;1.41;100.00
596;BME280;19946;49.306;11.350;2024-01-27T00:18:46;97761.00;;;0.96;100.00
596;BME280;19946;49.306;11.350;2024-01-27T00:21:56;97829.16;;;1.23;100.00
596;BME280;19946;49.306;11.350;2024-01-27T00:24:59;97855.38;;;1.30;100.00
596;BME280;19946;49.306;11.350;2024-01-27T00:28:13;97800.25;;;0.89;100.00
596;BME280;19946;49.306;11.350;2024-01-27T00:31:20;97800.19;;;0.92;100.00
596;BME280;19946;49.306;11.350;2024-01-27T00:38:17;97876.91;;;0.84;100.00
596;BME280;19946;49.306;11.350;2024-01-27T00:42:05;97822.69;;;0.39;100.00
596;BME280;19946;49.306;11.350;2024-01-27T00:45:38;97882.38;;;0.67;100.00
596;BME280;19946;49.306;11.350;2024-01-27T00:49:28;97834.91;;;0.25;100.00
596;BME280;19946;49.306;11.350;2024-01-27T00:52:44;97816.59;;;0.08;100.00
596;BME280;19946;49.306;11.350;2024-01-27T00:56:13;97806.59;;;0.00;100.00
596;BME280;19946;49.306;11.350;2024-01-27T01:04:08;97841.31;;;0.03;100.00
596;BME280;19946;49.306;11.350;2024-01-27T01:07:35;97807.22;;;-0.32;100.00
596;BME280;19946;49.306;11.350;2024-01-27T01:11:08;97848.06;;;0.05;100.00
596;BME280;19946;49.306;11.350;2024-01-27T01:14:47;97886.44;;;0.38;100.00
596;BME280;19946;49.306;11.350;2024-01-27T01:18:32;97889.34;;;0.59;100.00
596;BME280;19946;49.306;11.350;2024-01-27T01:21:46;97878.13;;;0.29;100.00
596;BME280;19946;49.306;11.350;2024-01-27T01:24:52;97823.88;;;-0.16;100.00
596;BME280;19946;49.306;11.350;2024-01-27T01:28:22;97843.59;;;-0.25;100.00
596;BME280;19946;49.306;11.350;2024-01-27T01:32:05;97835.22;;;-0.32;100.00
596;BME280;19946;49.306;11.350;2024-01-27T01:35:28;97855.38;;;-0.21;100.00
596;BME280;19946;49.306;11.350;2024-01-27T01:38:44;97895.75;;;-0.02;100.00
596;BME280;19946;49.306;11.350;2024-01-27T01:42:36;97882.50;;;-0.20;100.00
596;BME280;19946;49.306;11.350;2024-01-27T01:46:22;97880.16;;;-0.29;100.00
596;BME280;19946;49.306;11.350;2024-01-27T01:50:14;97914.88;;;-0.25;100.00
596;BME280;19946;49.306;11.350;2024-01-27T01:53:49;97865.69;;;-0.74;100.00
596;BME280;19946;49.306;11.350;2024-01-27T01:57:46;97858.97;;;-0.76;100.00
596;BME280;19946;49.306;11.350;2024-01-27T02:01:23;97926.13;;;-0.39;100.00
596;BME280;19946;49.306;11.350;2024-01-27T02:04:57;97854.03;;;-0.85;100.00
596;BME280;19946;49.306;11.350;2024-01-27T02:08:10;97854.34;;;-1.03;100.00
596;BME280;19946;49.306;11.350;2024-01-27T02:15:41;97885.66;;;-1.00;100.00
596;BME280;19946;49.306;11.350;2024-01-27T02:18:42;97939.53;;;-0.77;100.00
596;BME280;19946;49.306;11.350;2024-01-27T02:21:43;97879.19;;;-1.19;100.00
596;BME280;19946;49.306;11.350;2024-01-27T02:24:48;97868.38;;;-1.33;100.00
596;BME280;19946;49.306;11.350;2024-01-27T02:27:49;97928.03;;;-1.02;100.00
596;BME280;19946;49.306;11.350;2024-01-27T02:30:50;97880.25;;;-1.35;100.00
596;BME280;19946;49.306;11.350;2024-01-27T02:33:51;97923.09;;;-1.09;100.00
596;BME280;19946;49.306;11.350;2024-01-27T02:36:52;97877.00;;;-1.43;100.00
596;BME280;19946;49.306;11.350;2024-01-27T02:39:54;97928.19;;;-1.11;100.00
596;BME280;19946;49.306;11.350;2024-01-27T02:42:54;97906.53;;;-1.36;100.00
596;BME280;19946;49.306;11.350;2024-01-27T02:45:55;97906.66;;;-1.44;100.00
596;BME280;19946;49.306;11.350;2024-01-27T02:48:56;97960.47;;;-1.18;100.00
596;BME280;19946;49.306;11.350;2024-01-27T02:51:57;97922.66;;;-1.39;100.00
596;BME280;19946;49.306;11.350;2024-01-27T02:54:58;97968.03;;;-1.12;100.00
596;BME280;19946;49.306;11.350;2024-01-27T02:57:59;97988.44;;;-1.18;100.00
596;BME280;19946;49.306;11.350;2024-01-27T03:01:00;97929.72;;;-1.61;100.00
596;BME280;19946;49.306;11.350;2024-01-27T03:04:01;97909.38;;;-1.58;100.00
596;BME280;19946;49.306;11.350;2024-01-27T03:07:02;97987.53;;;-1.14;100.00
596;BME280;19946;49.306;11.350;2024-01-27T03:10:04;97936.50;;;-1.61;100.00
596;BME280;19946;49.306;11.350;2024-01-27T03:13:05;97972.69;;;-1.44;100.00
596;BME280;19946;49.306;11.350;2024-01-27T03:16:11;97907.91;;;-1.74;100.00
596;BME280;19946;49.306;11.350;2024-01-27T03:19:13;97930.66;;;-1.68;100.00
596;BME280;19946;49.306;11.350;2024-01-27T03:22:14;97929.13;;;-1.81;100.00
596;BME280;19946;49.306;11.350;2024-01-27T03:25:15;97979.59;;;-1.54;100.00
596;BME280;19946;49.306;11.350;2024-01-27T03:28:16;97936.81;;;-1.84;100.00
596;BME280;19946;49.306;11.350;2024-01-27T03:31:17;98000.69;;;-1.49;100.00
596;BME280;19946;49.306;11.350;2024-01-27T03:34:18;98009.09;;;-1.42;100.00
596;BME280;19946;49.306;11.350;2024-01-27T03:37:24;97937.09;;;-2.11;100.00
596;BME280;19946;49.306;11.350;2024-01-27T03:40:25;98027.03;;;-1.53;100.00
596;BME280;19946;49.306;11.350;2024-01-27T03:43:27;97974.84;;;-1.81;100.00
596;BME280;19946;49.306;11.350;2024-01-27T03:46:29;97993.28;;;-1.64;100.00
596;BME280;19946;49.306;11.350;2024-01-27T03:49:30;97976.47;;;-1.75;100.00
596;BME280;19946;49.306;11.350;2024-01-27T03:52:31;98019.31;;;-1.48;100.00
596;BME280;19946;49.306;11.350;2024-01-27T03:55:32;98018.50;;;-1.50;100.00
596;BME280;19946;49.306;11.350;2024-01-27T03:58:35;97987.38;;;-1.66;100.00
596;BME280;19946;49.306;11.350;2024-01-27T04:01:40;97951.41;;;-2.04;100.00
596;BME280;19946;49.306;11.350;2024-01-27T04:04:42;98006.06;;;-1.73;100.00
596;BME280;19946;49.306;11.350;2024-01-27T04:07:43;98036.31;;;-1.52;100.00
596;BME280;19946;49.306;11.350;2024-01-27T04:10:44;98021.22;;;-1.62;100.00
596;BME280;19946;49.306;11.350;2024-01-27T04:13:45;97990.94;;;-1.82;100.00
596;BME280;19946;49.306;11.350;2024-01-27T04:16:46;97981.97;;;-2.15;100.00
596;BME280;19946;49.306;11.350;2024-01-27T04:19:47;97985.41;;;-2.17;100.00
596;BME280;19946;49.306;11.350;2024-01-27T04:22:48;98049.22;;;-1.73;100.00
596;BME280;19946;49.306;11.350;2024-01-27T04:25:53;98045.88;;;-1.73;100.00
596;BME280;19946;49.306;11.350;2024-01-27T04:28:54;98046.00;;;-1.87;100.00
596;BME280;19946;49.306;11.350;2024-01-27T04:31:55;97986.47;;;-2.43;100.00
596;BME280;19946;49.306;11.350;2024-01-27T04:34:56;98045.38;;;-2.09;100.00
596;BME280;19946;49.306;11.350;2024-01-27T04:37:57;98011.78;;;-2.37;100.00
596;BME280;19946;49.306;11.350;2024-01-27T04:40:57;98068.16;;;-2.03;100.00
596;BME280;19946;49.306;11.350;2024-01-27T04:43:58;98018.50;;;-2.31;100.00
596;BME280;19946;49.306;11.350;2024-01-27T04:46:59;98045.50;;;-2.26;100.00
596;BME280;19946;49.306;11.350;2024-01-27T04:49:59;98011.94;;;-2.52;100.00
596;BME280;19946;49.306;11.350;2024-01-27T04:53:00;98006.91;;;-2.58;100.00
596;BME280;19946;49.306;11.350;2024-01-27T04:56:01;98013.69;;;-2.60;100.00
596;BME280;19946;49.306;11.350;2024-01-27T04:59:01;98069.22;;;-2.27;100.00
596;BME280;19946;49.306;11.350;2024-01-27T05:02:02;97962.25;;;-2.76;100.00
596;BME280;19946;49.306;11.350;2024-01-27T05:05:02;98010.28;;;-2.59;100.00
596;BME280;19946;49.306;11.350;2024-01-27T05:08:03;98002.81;;;-2.79;100.00
596;BME280;19946;49.306;11.350;2024-01-27T05:11:04;98002.09;;;-2.95;100.00
596;BME280;19946;49.306;11.350;2024-01-27T05:14:04;98016.38;;;-2.81;100.00
596;BME280;19946;49.306;11.350;2024-01-27T05:17:05;97996.22;;;-3.01;100.00
596;BME280;19946;49.306;11.350;2024-01-27T05:20:06;98044.16;;;-2.63;100.00
596;BME280;19946;49.306;11.350;2024-01-27T05:23:07;98007.13;;;-2.85;100.00
596;BME280;19946;49.306;11.350;2024-01-27T05:26:08;98078.66;;;-2.44;100.00
596;BME280;19946;49.306;11.350;2024-01-27T05:29:10;98007.91;;;-2.77;100.00
596;BME280;19946;49.306;11.350;2024-01-27T05:32:11;98086.25;;;-2.41;100.00
596;BME280;19946;49.306;11.350;2024-01-27T05:35:11;98028.19;;;-2.77;100.00
596;BME280;19946;49.306;11.350;2024-01-27T05:38:11;98084.63;;;-2.51;100.00
596;BME280;19946;49.306;11.350;2024-01-27T05:41:12;98023.25;;;-3.02;100.00
596;BME280;19946;49.306;11.350;2024-01-27T05:44:13;98018.25;;;-3.12;100.00
596;BME280;19946;49.306;11.350;2024-01-27T05:47:13;98083.06;;;-2.70;100.00
596;BME280;19946;49.306;11.350;2024-01-27T05:50:14;98116.00;;;-2.70;100.00
596;BME280;19946;49.306;11.350;2024-01-27T05:53:14;98073.03;;;-2.90;100.00
596;BME280;19946;49.306;11.350;2024-01-27T05:56:17;98104.22;;;-2.71;100.00
596;BME280;19946;49.306;11.350;2024-01-27T05:59:21;98056.31;;;-3.20;100.00
596;BME280;19946;49.306;11.350;2024-01-27T06:02:21;98023.44;;;-3.35;100.00
596;BME280;19946;49.306;11.350;2024-01-27T06:05:22;98063.00;;;-3.05;100.00
596;BME280;19946;49.306;11.350;2024-01-27T06:08:22;98036.81;;;-3.10;100.00
596;BME280;19946;49.306;11.350;2024-01-27T06:11:26;98078.88;;;-2.77;100.00
596;BME280;19946;49.306;11.350;2024-01-27T06:14:26;98047.81;;;-3.08;100.00
596;BME280;19946;49.306;11.350;2024-01-27T06:17:27;98052.81;;;-3.01;100.00
596;BME280;19946;49.306;11.350;2024-01-27T06:20:28;98136.22;;;-2.53;100.00
596;BME280;19946;49.306;11.350;2024-01-27T06:23:28;98081.47;;;-2.89;100.00
596;BME280;19946;49.306;11.350;2024-01-27T06:26:29;98057.91;;;-3.02;100.00
596;BME280;19946;49.306;11.350;2024-01-27T06:29:30;98075.63;;;-3.01;100.00
596;BME280;19946;49.306;11.350;2024-01-27T06:32:30;98139.69;;;-2.67;100.00
596;BME280;19946;49.306;11.350;2024-01-27T06:35:31;98100.91;;;-2.91;100.00
596;BME280;19946;49.306;11.350;2024-01-27T06:38:32;98111.00;;;-2.79;100.00
596;BME280;19946;49.306;11.350;2024-01-27T06:41:33;98058.81;;;-3.14;100.00
596;BME280;19946;49.306;11.350;2024-01-27T06:44:34;98105.09;;;-2.78;100.00
596;BME280;19946;49.306;11.350;2024-01-27T06:47:35;98120.22;;;-2.68;100.00
596;BME280;19946;49.306;11.350;2024-01-27T06:50:36;98058.81;;;-3.14;100.00
596;BME280;19946;49.306;11.350;2024-01-27T06:53:37;98161.53;;;-2.46;100.00
596;BME280;19946;49.306;11.350;2024-01-27T06:56:40;98170.75;;;-2.30;100.00
596;BME280;19946;49.306;11.350;2024-01-27T06:59:47;98153.91;;;-2.40;100.00
596;BME280;19946;49.306;11.350;2024-01-27T07:02:52;98167.38;;;-2.30;100.00
596;BME280;19946;49.306;11.350;2024-01-27T07:05:54;98128.50;;;-2.37;100.00
596;BME280;19946;49.306;11.350;2024-01-27T07:08:55;98154.75;;;-2.39;100.00
596;BME280;19946;49.306;11.350;2024-01-27T07:11:56;98148.00;;;-2.46;100.00
596;BME280;19946;49.306;11.350;2024-01-27T07:14:57;98164.06;;;-2.47;100.00
596;BME280;19946;49.306;11.350;2024-01-27T07:18:00;98122.03;;;-2.83;100.00
596;BME280;19946;49.306;11.350;2024-01-27T07:21:01;98114.44;;;-2.83;100.00
596;BME280;19946;49.306;11.350;2024-01-27T07:24:03;98103.53;;;-3.04;100.00
596;BME280;19946;49.306;11.350;2024-01-27T07:27:07;98122.03;;;-2.89;100.00
596;BME280;19946;49.306;11.350;2024-01-27T07:30:11;98186.84;;;-2.35;100.00
596;BME280;19946;49.306;11.350;2024-01-27T07:33:12;98118.66;;;-2.84;100.00
596;BME280;19946;49.306;11.350;2024-01-27T07:36:13;98131.34;;;-2.87;100.00
596;BME280;19946;49.306;11.350;2024-01-27T07:39:14;98121.34;;;-3.17;100.00
596;BME280;19946;49.306;11.350;2024-01-27T07:42:15;98195.41;;;-2.51;100.00
596;BME280;19946;49.306;11.350;2024-01-27T07:45:24;98178.44;;;-2.48;100.00
596;BME280;19946;49.306;11.350;2024-01-27T07:48:58;98107.63;;;-2.77;100.00
596;BME280;19946;49.306;11.350;2024-01-27T07:52:50;98118.47;;;-2.58;100.00
596;BME280;19946;49.306;11.350;2024-01-27T07:56:41;98098.25;;;-2.63;100.00
596;BME280;19946;49.306;11.350;2024-01-27T08:00:34;98189.16;;;-2.00;100.00
596;BME280;19946;49.306;11.350;2024-01-27T08:04:14;98193.31;;;-1.93;100.00
596;BME280;19946;49.306;11.350;2024-01-27T08:07:42;98127.56;;;-2.24;100.00
596;BME280;19946;49.306;11.350;2024-01-27T08:11:15;98167.06;;;-1.89;100.00
596;BME280;19946;49.306;11.350;2024-01-27T08:14:24;98127.34;;;-1.95;100.00
596;BME280;19946;49.306;11.350;2024-01-27T08:17:48;98191.31;;;-1.56;100.00
596;BME280;19946;49.306;11.350;2024-01-27T08:21:35;98129.78;;;-1.86;100.00
596;BME280;19946;49.306;11.350;2024-01-27T08:25:12;98165.91;;;-1.53;100.00
596;BME280;19946;49.306;11.350;2024-01-27T08:29:45;98147.25;;;-1.52;100.00
596;BME280;19946;49.306;11.350;2024-01-27T08:33:19;98134.56;;;-1.52;100.00
596;BME280;19946;49.306;11.350;2024-01-27T08:37:14;98117.28;;;-1.23;100.00
596;BME280;19946;49.306;11.350;2024-01-27T08:40:46;98209.00;;;-0.66;100.00
596;BME280;19946;49.306;11.350;2024-01-27T08:44:19;98211.31;;;-0.46;100.00
596;BME280;19946;49.306;11.350;2024-01-27T08:47:54;98181.66;;;-0.50;100.00
596;BME280;19946;49.306;11.350;2024-01-27T08:50:55;98186.84;;;-0.56;100.00
596;BME280;19946;49.306;11.350;2024-01-27T08:53:56;98203.38;;;-0.25;100.00
596;BME280;19946;49.306;11.350;2024-01-27T08:56:59;98155.34;;;-0.48;100.00
596;BME280;19946;49.306;11.350;2024-01-27T09:00:07;98160.41;;;-0.46;100.00
596;BME280;19946;49.306;11.350;2024-01-27T09:03:10;98156.69;;;-0.24;100.00
596;BME280;19946;49.306;11.350;2024-01-27T09:06:15;98218.88;;;0.17;100.00
596;BME280;19946;49.306;11.350;2024-01-27T09:09:17;98219.00;;;0.11;100.00
596;BME280;19946;49.306;11.350;2024-01-27T09:12:21;98220.13;;;0.45;100.00
596;BME280;19946;49.306;11.350;2024-01-27T09:15:22;98163.25;;;0.43;100.00
596;BME280;19946;49.306;11.350;2024-01-27T09:18:22;98219.38;;;1.34;100.00
596;BME280;19946;49.306;11.350;2024-01-27T09:21:23;98220.16;;;1.37;100.00
596;BME280;19946;49.306;11.350;2024-01-27T09:24:28;98210.97;;;1.70;100.00
596;BME280;19946;49.306;11.350;2024-01-27T09:27:29;98215.94;;;1.75;100.00
596;BME280;19946;49.306;11.350;2024-01-27T09:30:30;98186.22;;;2.09;100.00
596;BME280;19946;49.306;11.350;2024-01-27T09:33:31;98155.16;;;1.91;100.00
596;BME280;19946;49.306;11.350;2024-01-27T09:36:34;98175.53;;;2.29;100.00
596;BME280;19946;49.306;11.350;2024-01-27T09:39:36;98204.84;;;2.50;100.00
596;BME280;19946;49.306;11.350;2024-01-27T09:42:38;98159.63;;;2.16;100.00
596;BME280;19946;49.306;11.350;2024-01-27T09:45:41;98216.25;;;2.37;100.00
596;BME280;19946;49.306;11.350;2024-01-27T09:48:43;98258.47;;;2.53;100.00
596;BME280;19946;49.306;11.350;2024-01-27T09:51:49;98259.63;;;2.40;100.00
596;BME280;19946;49.306;11.350;2024-01-27T09:54:51;98155.69;;;2.05;100.00
596;BME280;19946;49.306;11.350;2024-01-27T09:57:51;98255.25;;;2.80;100.00
596;BME280;19946;49.306;11.350;2024-01-27T10:00:56;98204.22;;;2.40;100.00
596;BME280;19946;49.306;11.350;2024-01-27T10:03:57;98201.00;;;2.32;100.00
596;BME280;19946;49.306;11.350;2024-01-27T10:07:01;98261.75;;;2.60;100.00
596;BME280;19946;49.306;11.350;2024-01-27T10:10:03;98202.06;;;2.59;100.00
596;BME280;19946;49.306;11.350;2024-01-27T10:13:04;98205.34;;;2.64;100.00
596;BME280;19946;49.306;11.350;2024-01-27T10:16:07;98223.50;;;2.87;100.00
596;BME280;19946;49.306;11.350;2024-01-27T10:19:16;98213.25;;;2.55;100.00
596;BME280;19946;49.306;11.350;2024-01-27T10:26:02;98239.31;;;3.34;100.00
596;BME280;19946;49.306;11.350;2024-01-27T10:29:03;98178.78;;;2.70;100.00
596;BME280;19946;49.306;11.350;2024-01-27T10:32:09;98203.53;;;3.33;100.00
596;BME280;19946;49.306;11.350;2024-01-27T10:35:11;98212.53;;;3.75;100.00
596;BME280;19946;49.306;11.350;2024-01-27T10:41:37;98205.34;;;3.27;100.00
596;BME280;19946;49.306;11.350;2024-01-27T10:44:39;98159.56;;;3.76;100.00
596;BME280;19946;49.306;11.350;2024-01-27T10:47:43;98238.13;;;4.32;100.00
596;BME280;19946;49.306;11.350;2024-01-27T10:50:46;98175.47;;;4.39;100.00
596;BME280;19946;49.306;11.350;2024-01-27T10:53:49;98234.91;;;4.26;100.00
596;BME280;19946;49.306;11.350;2024-01-27T10:56:55;98196.00;;;3.85;100.00
596;BME280;19946;49.306;11.350;2024-01-27T10:59:57;98144.06;;;3.79;100.00
596;BME280;19946;49.306;11.350;2024-01-27T11:03:01;98204.09;;;3.72;100.00
596;BME280;19946;49.306;11.350;2024-01-27T11:06:04;98153.16;;;3.61;100.00
596;BME280;19946;49.306;11.350;2024-01-27T11:09:08;98155.47;;;3.41;100.00
596;BME280;19946;49.306;11.350;2024-01-27T11:12:09;98111.19;;;3.37;100.00
596;BME280;19946;49.306;11.350;2024-01-27T11:15:11;98177.63;;;3.71;100.00
596;BME280;19946;49.306;11.350;2024-01-27T11:18:15;98216.22;;;3.94;100.00
596;BME280;19946;49.306;11.350;2024-01-27T11:21:16;98115.66;;;3.30;100.00
596;BME280;19946;49.306;11.350;2024-01-27T11:24:18;98128.66;;;3.52;100.00
596;BME280;19946;49.306;11.350;2024-01-27T11:27:26;98130.66;;;3.71;100.00
596;BME280;19946;49.306;11.350;2024-01-27T11:30:31;98133.72;;;3.55;100.00
596;BME280;19946;49.306;11.350;2024-01-27T11:33:45;98111.28;;;3.62;100.00
596;BME280;19946;49.306;11.350;2024-01-27T11:36:47;98137.97;;;3.83;100.00
596;BME280;19946;49.306;11.350;2024-01-27T11:39:48;98135.91;;;3.67;100.00
596;BME280;19946;49.306;11.350;2024-01-27T11:42:56;98166.06;;;4.14;100.00
596;BME280;19946;49.306;11.350;2024-01-27T11:45:59;98162.84;;;4.07;100.00
596;BME280;19946;49.306;11.350;2024-01-27T11:49:00;98166.06;;;4.14;100.00
596;BME280;19946;49.306;11.350;2024-01-27T11:52:01;98151.84;;;3.77;100.00
596;BME280;19946;49.306;11.350;2024-01-27T11:55:03;98217.16;;;4.20;100.00
596;BME280;19946;49.306;11.350;2024-01-27T11:58:05;98152.91;;;3.98;100.00
596;BME280;19946;49.306;11.350;2024-01-27T12:01:05;98161.44;;;3.98;100.00
596;BME280;19946;49.306;11.350;2024-01-27T12:04:06;98217.28;;;4.43;100.00
596;BME280;19946;49.306;11.350;2024-01-27T12:07:07;98212.75;;;4.23;100.00
596;BME280;19946;49.306;11.350;2024-01-27T12:10:09;98202.31;;;4.29;100.00
596;BME280;19946;49.306;11.350;2024-01-27T12:13:11;98097.41;;;3.69;100.00
596;BME280;19946;49.306;11.350;2024-01-27T12:16:12;98133.56;;;3.88;100.00
596;BME280;19946;49.306;11.350;2024-01-27T12:19:13;98109.19;;;3.75;100.00
596;BME280;19946;49.306;11.350;2024-01-27T12:22:32;98136.72;;;4.22;100.00
596;BME280;19946;49.306;11.350;2024-01-27T12:25:34;98147.88;;;4.21;100.00
596;BME280;19946;49.306;11.350;2024-01-27T12:28:34;98113.00;;;4.16;100.00
596;BME280;19946;49.306;11.350;2024-01-27T12:31:38;98148.78;;;4.45;100.00
596;BME280;19946;49.306;11.350;2024-01-27T12:34:42;98186.50;;;4.68;100.00
596;BME280;19946;49.306;11.350;2024-01-27T12:37:43;98169.88;;;4.28;100.00
596;BME280;19946;49.306;11.350;2024-01-27T12:40:43;98168.03;;;4.32;100.00
596;BME280;19946;49.306;11.350;2024-01-27T12:43:44;98192.78;;;4.33;100.00
596;BME280;19946;49.306;11.350;2024-01-27T12:46:44;98193.00;;;4.53;100.00
596;BME280;19946;49.306;11.350;2024-01-27T12:49:45;98195.97;;;4.41;100.00
596;BME280;19946;49.306;11.350;2024-01-27T12:52:45;98197.06;;;4.59;100.00
596;BME280;19946;49.306;11.350;2024-01-27T12:55:45;98187.75;;;4.56;100.00
596;BME280;19946;49.306;11.350;2024-01-27T12:58:46;98187.59;;;4.61;100.00
596;BME280;19946;49.306;11.350;2024-01-27T13:01:46;98193.03;;;4.76;100.00
596;BME280;19946;49.306;11.350;2024-01-27T13:04:46;98191.84;;;4.62;100.00
596;BME280;19946;49.306;11.350;2024-01-27T13:07:47;98189.19;;;4.65;100.00
596;BME280;19946;49.306;11.350;2024-01-27T13:10:49;98195.47;;;4.55;100.00
596;BME280;19946;49.306;11.350;2024-01-27T13:13:49;98190.88;;;4.39;100.00
596;BME280;19946;49.306;11.350;2024-01-27T13:16:50;98178.13;;;4.63;100.00
596;BME280;19946;49.306;11.350;2024-01-27T13:19:51;98194.50;;;4.59;100.00
596;BME280;19946;49.306;11.350;2024-01-27T13:22:51;98189.38;;;4.59;100.00
596;BME280;19946;49.306;11.350;2024-01-27T13:25:53;98191.53;;;4.71;100.00
596;BME280;19946;49.306;11.350;2024-01-27T13:28:54;98201.56;;;4.52;100.00
596;BME280;19946;49.306;11.350;2024-01-27T13:31:54;98203.69;;;4.39;100.00
596;BME280;19946;49.306;11.350;2024-01-27T13:34:54;98204.28;;;4.21;100.00
596;BME280;19946;49.306;11.350;2024-01-27T13:37:55;98197.03;;;4.34;100.00
596;BME280;19946;49.306;11.350;2024-01-27T13:40:55;98192.44;;;4.17;100.00
596;BME280;19946;49.306;11.350;2024-01-27T13:43:55;98195.41;;;4.31;100.00
596;BME280;19946;49.306;11.350;2024-01-27T13:46:56;98186.00;;;4.32;100.00
596;BME280;19946;49.306;11.350;2024-01-27T13:50:00;98193.53;;;4.36;100.00
596;BME280;19946;49.306;11.350;2024-01-27T13:53:01;98187.66;;;4.33;100.00
596;BME280;19946;49.306;11.350;2024-01-27T13:56:01;98179.47;;;4.48;100.00
596;BME280;19946;49.306;11.350;2024-01-27T13:59:02;98177.13;;;4.42;100.00
596;BME280;19946;49.306;11.350;2024-01-27T14:02:04;98166.22;;;4.60;100.00
596;BME280;19946;49.306;11.350;2024-01-27T14:05:04;98170.94;;;4.48;100.00
596;BME280;19946;49.306;11.350;2024-01-27T14:08:05;98168.38;;;4.48;100.00
596;BME280;19946;49.306;11.350;2024-01-27T14:11:07;98155.56;;;4.72;100.00
596;BME280;19946;49.306;11.350;2024-01-27T14:14:07;98155.00;;;4.64;100.00
596;BME280;19946;49.306;11.350;2024-01-27T14:17:08;98145.25;;;4.74;100.00
596;BME280;19946;49.306;11.350;2024-01-27T14:20:09;98130.69;;;4.50;100.00
596;BME280;19946;49.306;11.350;2024-01-27T14:23:10;98149.03;;;4.37;100.00
596;BME280;19946;49.306;11.350;2024-01-27T14:26:10;98143.78;;;4.16;100.00
596;BME280;19946;49.306;11.350;2024-01-27T14:29:14;98136.81;;;3.93;100.00
596;BME280;19946;49.306;11.350;2024-01-27T14:32:17;98141.50;;;4.07;100.00
596;BME280;19946;49.306;11.350;2024-01-27T14:35:18;98144.59;;;3.90;100.00
596;BME280;19946;49.306;11.350;2024-01-27T14:38:19;98132.59;;;3.90;100.00
596;BME280;19946;49.306;11.350;2024-01-27T14:41:20;98133.72;;;4.10;100.00
596;BME280;19946;49.306;11.350;2024-01-27T14:44:20;98140.91;;;3.71;100.00
596;BME280;19946;49.306;11.350;2024-01-27T14:47:22;98136.75;;;3.39;100.00
596;BME280;19946;49.306;11.350;2024-01-27T14:50:23;98145.88;;;3.47;100.00
596;BME280;19946;49.306;11.350;2024-01-27T14:53:26;98126.75;;;3.31;100.00
596;BME280;19946;49.306;11.350;2024-01-27T14:56:28;98130.16;;;3.32;100.00
596;BME280;19946;49.306;11.350;2024-01-27T14:59:28;98145.03;;;3.47;100.00
596;BME280;19946;49.306;11.350;2024-01-27T15:02:29;98147.47;;;3.51;100.00
596;BME280;19946;49.306;11.350;2024-01-27T15:05:29;98138.72;;;3.30;100.00
596;BME280;19946;49.306;11.350;2024-01-27T15:08:30;98140.50;;;2.98;100.00
596;BME280;19946;49.306;11.350;2024-01-27T15:11:31;98148.78;;;3.06;100.00
596;BME280;19946;49.306;11.350;2024-01-27T15:14:31;98145.94;;;2.85;100.00
596;BME280;19946;49.306;11.350;2024-01-27T15:17:32;98150.19;;;2.86;100.00
596;BME280;19946;49.306;11.350;2024-01-27T15:20:32;98147.94;;;2.74;100.00
596;BME280;19946;49.306;11.350;2024-01-27T15:23:33;98160.03;;;2.69;100.00
596;BME280;19946;49.306;11.350;2024-01-27T15:26:34;98132.50;;;2.46;100.00
596;BME280;19946;49.306;11.350;2024-01-27T15:29:34;98128.78;;;2.58;100.00
596;BME280;19946;49.306;11.350;2024-01-27T15:32:35;98145.28;;;2.79;100.00
596;BME280;19946;49.306;11.350;2024-01-27T15:35:36;98149.72;;;2.71;100.00
596;BME280;19946;49.306;11.350;2024-01-27T15:38:37;98150.19;;;2.54;100.00
596;BME280;19946;49.306;11.350;2024-01-27T15:41:37;98130.78;;;2.13;100.00
596;BME280;19946;49.306;11.350;2024-01-27T15:44:38;98154.53;;;2.16;100.00
596;BME280;19946;49.306;11.350;2024-01-27T15:47:38;98147.22;;;2.03;100.00
596;BME280;19946;49.306;11.350;2024-01-27T15:50:38;98151.59;;;1.96;100.00
596;BME280;19946;49.306;11.350;2024-01-27T15:53:39;98151.78;;;1.89;100.00
596;BME280;19946;49.306;11.350;2024-01-27T15:56:39;98160.25;;;1.91;100.00
596;BME280;19946;49.306;11.350;2024-01-27T15:59:40;98169.22;;;1.71;100.00
596;BME280;19946;49.306;11.350;2024-01-27T16:02:41;98168.53;;;1.63;100.00
596;BME280;19946;49.306;11.350;2024-01-27T16:05:41;98168.72;;;1.54;100.00
596;BME280;19946;49.306;11.350;2024-01-27T16:08:41;98169.91;;;1.39;100.00
596;BME280;19946;49.306;11.350;2024-01-27T16:11:42;98155.88;;;1.19;100.00
596;BME280;19946;49.306;11.350;2024-01-27T16:14:42;98169.41;;;1.22;100.00
596;BME280;19946;49.306;11.350;2024-01-27T16:17:42;98142.97;;;0.85;100.00
596;BME280;19946;49.306;11.350;2024-01-27T16:20:45;98163.34;;;0.85;100.00
596;BME280;19946;49.306;11.350;2024-01-27T16:23:49;98165.47;;;0.61;100.00
596;BME280;19946;49.306;11.350;2024-01-27T16:26:50;98164.31;;;0.31;100.00
596;BME280;19946;49.306;11.350;2024-01-27T16:29:50;98190.19;;;0.06;100.00
596;BME280;19946;49.306;11.350;2024-01-27T16:32:51;98201.91;;;0.17;100.00
596;BME280;19946;49.306;11.350;2024-01-27T16:35:51;98208.13;;;-0.01;100.00
596;BME280;19946;49.306;11.350;2024-01-27T16:38:52;98214.13;;;-0.06;100.00
596;BME280;19946;49.306;11.350;2024-01-27T16:41:52;98217.72;;;-0.19;100.00
596;BME280;19946;49.306;11.350;2024-01-27T16:44:52;98231.09;;;-0.04;100.00
596;BME280;19946;49.306;11.350;2024-01-27T16:47:53;98224.25;;;0.00;100.00
596;BME280;19946;49.306;11.350;2024-01-27T16:50:53;98226.03;;;-0.07;100.00